Big Bear Station Historical Data
Daily Summary for March 11, 2019 Units:  English    Metric   Both
Next Day »
Daily Weekly Monthly Yearly Custom
  High: Low: Average:
Temperature: 36.5 °F 21.4 °F 29.6 °F
Dew Point: 31.6 °F 20.4 °F 26.8 °F
Humidity: 96% 71% 89%
Wind Speed: 4.2mph 0.0mph 0.8mph
Wind Gust: -999.0mph - -
Wind- - SSW
Pressure: 23.33 in 23.20 in -
Precipitation: 0.00 in    
Historical Graphs
 
 
Tabular Data for March 11, 2019
Time Temperature Dew Point Pressure Wind Wind Speed Wind Gust Humidity Rainfall Rate (Hourly)
00:07 25.0 °F 23.5 °F 23.31 in Calm   -999.0 mph 94% 0.00 in
00:22 24.6 °F 23.1 °F 23.31 in Calm   -999.0 mph 94% 0.00 in
00:38 24.4 °F 22.9 °F 23.31 in Calm   -999.0 mph 94% 0.00 in
00:53 24.4 °F 22.9 °F 23.31 in Calm   -999.0 mph 94% 0.00 in
01:08 24.3 °F 22.8 °F 23.31 in Calm   -999.0 mph 94% 0.00 in
01:23 24.1 °F 22.9 °F 23.31 in Calm   -999.0 mph 95% 0.00 in
01:39 23.7 °F 22.5 °F 23.31 in Calm   -999.0 mph 95% 0.00 in
01:54 23.7 °F 22.5 °F 23.32 in Calm   -999.0 mph 95% 0.00 in
02:09 23.5 °F 22.5 °F 23.32 in Calm   -999.0 mph 96% 0.00 in
02:24 23.4 °F 22.4 °F 23.32 in Calm   -999.0 mph 96% 0.00 in
02:39 23.2 °F 22.0 °F 23.31 in Calm   -999.0 mph 95% 0.00 in
02:55 23.0 °F 21.8 °F 23.31 in Calm   -999.0 mph 95% 0.00 in
03:10 23.0 °F 21.8 °F 23.31 in Calm   -999.0 mph 95% 0.00 in
03:25 22.6 °F 21.4 °F 23.31 in Calm   -999.0 mph 95% 0.00 in
03:40 22.3 °F 21.1 °F 23.30 in Calm   -999.0 mph 95% 0.00 in
03:55 22.1 °F 20.9 °F 23.30 in Calm   -999.0 mph 95% 0.00 in
04:11 21.9 °F 20.7 °F 23.30 in Calm   -999.0 mph 95% 0.00 in
04:26 21.4 °F 20.4 °F 23.29 in Calm   -999.0 mph 96% 0.00 in
04:41 22.3 °F 21.3 °F 23.29 in Calm   -999.0 mph 96% 0.00 in
04:56 22.1 °F 21.1 °F 23.30 in Calm   -999.0 mph 96% 0.00 in
05:11 22.1 °F 21.1 °F 23.30 in Calm   -999.0 mph 96% 0.00 in
05:27 22.6 °F 21.6 °F 23.30 in Calm   -999.0 mph 96% 0.00 in
05:42 23.5 °F 22.5 °F 23.30 in Calm   -999.0 mph 96% 0.00 in
05:57 24.1 °F 23.1 °F 23.30 in Calm   -999.0 mph 96% 0.00 in
06:12 24.6 °F 23.6 °F 23.30 in Calm   -999.0 mph 96% 0.00 in
06:27 24.6 °F 23.4 °F 23.30 in Calm   -999.0 mph 95% 0.00 in
06:43 25.5 °F 23.8 °F 23.30 in Calm   -999.0 mph 93% 0.00 in
06:58 26.1 °F 24.1 °F 23.30 in Calm   -999.0 mph 92% 0.00 in
07:13 26.2 °F 24.2 °F 23.31 in Calm   -999.0 mph 92% 0.00 in
07:28 26.8 °F 24.3 °F 23.31 in NW 1.1 mph -999.0 mph 90% 0.00 in
07:44 27.0 °F 24.5 °F 23.30 in Calm   -999.0 mph 90% 0.00 in
07:59 27.3 °F 24.5 °F 23.30 in Calm   -999.0 mph 89% 0.00 in
08:14 27.7 °F 24.9 °F 23.30 in Calm   -999.0 mph 89% 0.00 in
08:29 28.0 °F 24.9 °F 23.32 in Calm   -999.0 mph 88% 0.00 in
08:45 28.9 °F 25.5 °F 23.31 in ESE 3.2 mph -999.0 mph 87% 0.00 in
09:00 30.2 °F 26.8 °F 23.32 in Calm   -999.0 mph 87% 0.00 in
09:15 30.2 °F 26.5 °F 23.32 in Calm   -999.0 mph 86% 0.00 in
09:31 31.3 °F 27.3 °F 23.32 in NNW 2.2 mph -999.0 mph 85% 0.00 in
09:46 32.4 °F 27.8 °F 23.32 in North 2.2 mph -999.0 mph 83% 0.00 in
10:01 32.7 °F 27.8 °F 23.33 in NNW 3.2 mph -999.0 mph 82% 0.00 in
10:16 33.8 °F 27.7 °F 23.32 in North 2.2 mph -999.0 mph 78% 0.00 in
10:31 33.8 °F 27.4 °F 23.32 in Calm   -999.0 mph 77% 0.00 in
10:47 33.3 °F 26.9 °F 23.32 in NW 3.7 mph -999.0 mph 77% 0.00 in
11:02 33.4 °F 27.3 °F 23.32 in North 1.7 mph -999.0 mph 78% 0.00 in
11:18 33.4 °F 27.0 °F 23.33 in SE 1.1 mph -999.0 mph 77% 0.00 in
11:33 34.3 °F 27.2 °F 23.33 in NNW 3.7 mph -999.0 mph 75% 0.00 in
11:48 35.1 °F 27.3 °F 23.33 in Calm   -999.0 mph 73% 0.00 in
12:03 36.1 °F 27.6 °F 23.33 in Calm   -999.0 mph 71% 0.00 in
12:18 36.0 °F 28.8 °F 23.32 in West 3.7 mph -999.0 mph 75% 0.00 in
12:34 36.5 °F 30.0 °F 23.32 in Calm   -999.0 mph 77% 0.00 in
12:49 35.8 °F 29.9 °F 23.32 in ENE 2.7 mph -999.0 mph 79% 0.00 in
13:04 36.1 °F 30.8 °F 23.31 in Calm   -999.0 mph 81% 0.00 in
13:19 36.3 °F 31.0 °F 23.31 in SSE 2.2 mph -999.0 mph 81% 0.00 in
13:35 34.9 °F 30.9 °F 23.31 in NNE 2.2 mph -999.0 mph 85% 0.00 in
13:50 36.0 °F 31.6 °F 23.31 in East 2.2 mph -999.0 mph 84% 0.00 in
14:05 34.9 °F 30.9 °F 23.29 in Calm   -999.0 mph 85% 0.00 in
14:20 34.7 °F 30.4 °F 23.28 in NW 1.7 mph -999.0 mph 84% 0.00 in
14:35 34.7 °F 30.4 °F 23.28 in NE 2.7 mph -999.0 mph 84% 0.00 in
14:51 35.1 °F 29.9 °F 23.28 in Calm   -999.0 mph 81% 0.00 in
15:06 35.1 °F 29.9 °F 23.28 in ESE 2.7 mph -999.0 mph 81% 0.00 in
15:21 34.3 °F 29.1 °F 23.28 in NE 1.1 mph -999.0 mph 81% 0.00 in
15:37 35.6 °F 30.0 °F 23.27 in ESE 2.2 mph -999.0 mph 80% 0.00 in
15:52 35.8 °F 29.9 °F 23.25 in East 2.2 mph -999.0 mph 79% 0.00 in
16:07 36.1 °F 29.6 °F 23.26 in SE 2.7 mph -999.0 mph 77% 0.00 in
16:22 35.1 °F 29.9 °F 23.26 in NW 4.2 mph -999.0 mph 81% 0.00 in
16:37 34.3 °F 29.4 °F 23.26 in Calm   -999.0 mph 82% 0.00 in
16:53 34.3 °F 30.3 °F 23.26 in Calm   -999.0 mph 85% 0.00 in
17:10 33.1 °F 29.9 °F 23.26 in Calm   -999.0 mph 88% 0.00 in
17:25 32.4 °F 29.8 °F 23.26 in Calm   -999.0 mph 90% 0.00 in
17:40 32.0 °F 29.7 °F 23.26 in Calm   -999.0 mph 91% 0.00 in
17:55 31.5 °F 29.4 °F 23.25 in Calm   -999.0 mph 92% 0.00 in
18:10 31.6 °F 29.5 °F 23.24 in Calm   -999.0 mph 92% 0.00 in
18:26 31.3 °F 29.2 °F 23.24 in Calm   -999.0 mph 92% 0.00 in
18:41 30.9 °F 29.1 °F 23.24 in West 2.2 mph -999.0 mph 93% 0.00 in
18:56 30.9 °F 29.1 °F 23.24 in Calm   -999.0 mph 93% 0.00 in
19:11 30.7 °F 28.9 °F 23.23 in NW 1.7 mph -999.0 mph 93% 0.00 in
19:26 30.7 °F 28.9 °F 23.23 in Calm   -999.0 mph 93% 0.00 in
19:42 30.7 °F 29.2 °F 23.22 in SE 2.2 mph -999.0 mph 94% 0.00 in
19:57 30.7 °F 29.2 °F 23.22 in East 2.2 mph -999.0 mph 94% 0.00 in
20:12 30.6 °F 29.1 °F 23.22 in NNE 1.7 mph -999.0 mph 94% 0.00 in
20:27 30.6 °F 29.3 °F 23.21 in Calm   -999.0 mph 95% 0.00 in
20:43 30.6 °F 29.3 °F 23.21 in NNW 2.2 mph -999.0 mph 95% 0.00 in
20:58 30.6 °F 29.3 °F 23.22 in NE 1.7 mph -999.0 mph 95% 0.00 in
21:13 30.4 °F 29.1 °F 23.22 in Calm   -999.0 mph 95% 0.00 in
21:28 30.4 °F 29.1 °F 23.22 in Calm   -999.0 mph 95% 0.00 in
21:43 30.4 °F 29.1 °F 23.22 in Calm   -999.0 mph 95% 0.00 in
21:59 30.4 °F 29.1 °F 23.22 in Calm   -999.0 mph 95% 0.00 in
22:14 30.4 °F 29.4 °F 23.21 in Calm   -999.0 mph 96% 0.00 in
22:29 30.4 °F 29.4 °F 23.21 in Calm   -999.0 mph 96% 0.00 in
22:44 30.4 °F 29.4 °F 23.21 in Calm   -999.0 mph 96% 0.00 in
22:59 30.4 °F 29.4 °F 23.21 in Calm   -999.0 mph 96% 0.00 in
23:15 30.4 °F 29.4 °F 23.20 in Calm   -999.0 mph 96% 0.00 in
23:30 30.2 °F 29.2 °F 23.20 in Calm   -999.0 mph 96% 0.00 in
23:45 30.2 °F 29.2 °F 23.20 in Calm   -999.0 mph 96% 0.00 in
Big Bear CA Weather